Time;durP1;ratioP1;P1;durP2;ratioP2;P2;SDS_P1;SDS_P2;PMS_P1;PMS_P2;Temp;Humidity;BMP_temperature;BMP_pressure;BME280_temperature;BME280_humidity;BME280_pressure;Samples;Min_cycle;Max_cycle;Signal;HPM_P1;HPM_P2
2023/04/01 00:00:22;;;;;;;14.40;7.38;;;9.90;99.90;;;;;;5050558;28;20048;-62
2023/04/01 00:02:48;;;;;;;14.15;9.10;;;9.90;99.90;;;;;;5049615;28;20493;-62
2023/04/01 00:05:16;;;;;;;12.43;6.88;;;9.90;99.90;;;;;;5050299;28;20044;-62
2023/04/01 00:07:42;;;;;;;13.00;7.50;;;9.90;99.90;;;;;;5051434;28;20045;-62
2023/04/01 00:10:11;;;;;;;10.75;6.75;;;9.90;99.90;;;;;;5049630;28;20114;-62
2023/04/01 00:12:38;;;;;;;9.73;6.13;;;9.90;99.90;;;;;;5033718;28;20041;-62
2023/04/01 00:15:06;;;;;;;9.88;5.57;;;9.90;99.90;;;;;;5051200;28;20143;-62
2023/04/01 00:17:32;;;;;;;9.75;6.07;;;9.90;99.90;;;;;;5049651;28;20043;-62
2023/04/01 00:19:58;;;;;;;9.57;4.90;;;9.80;99.90;;;;;;5051315;28;20033;-62
2023/04/01 00:22:26;;;;;;;9.20;5.63;;;9.90;99.90;;;;;;5051382;28;20142;-62
2023/04/01 00:24:52;;;;;;;7.10;4.93;;;9.80;99.90;;;;;;5049261;28;20056;-62
2023/04/01 00:27:18;;;;;;;8.88;4.32;;;9.90;99.90;;;;;;5050126;28;20087;-62
2023/04/01 00:29:45;;;;;;;7.70;4.78;;;9.90;99.90;;;;;;5049449;28;20426;-61
2023/04/01 00:32:11;;;;;;;8.30;5.13;;;9.80;99.90;;;;;;5051155;28;20041;-62
2023/04/01 00:34:37;;;;;;;7.40;4.05;;;9.80;99.90;;;;;;5050944;28;20041;-61
2023/04/01 00:37:03;;;;;;;8.32;4.93;;;9.80;99.90;;;;;;5050417;28;20043;-62
2023/04/01 00:39:30;;;;;;;8.90;5.20;;;9.80;99.90;;;;;;5033058;28;20076;-62
2023/04/01 00:41:56;;;;;;;11.05;5.47;;;9.80;99.90;;;;;;5050941;28;20134;-61
2023/04/01 00:44:28;;;;;;;10.90;5.88;;;9.80;99.90;;;;;;5049250;28;20048;-62
2023/04/01 00:46:54;;;;;;;12.05;5.93;;;9.80;99.90;;;;;;5050885;28;20068;-62
2023/04/01 00:49:23;;;;;;;10.55;5.78;;;9.80;99.90;;;;;;5050863;28;20119;-62
2023/04/01 00:51:55;;;;;;;10.77;5.97;;;9.80;99.90;;;;;;5050218;28;20099;-62
2023/04/01 00:54:23;;;;;;;10.63;6.43;;;9.80;99.90;;;;;;5050775;28;20119;-61
2023/04/01 00:57:03;;;;;;;11.60;5.55;;;9.80;99.90;;;;;;5049395;28;20039;-62
2023/04/01 00:59:49;;;;;;;10.90;6.32;;;9.80;99.90;;;;;;5048847;28;20106;-62
2023/04/01 01:02:18;;;;;;;9.85;5.68;;;9.80;99.90;;;;;;5049484;28;20053;-62
2023/04/01 01:04:44;;;;;;;11.70;6.53;;;9.90;99.90;;;;;;5048848;28;20041;-62
2023/04/01 01:07:18;;;;;;;16.25;6.70;;;9.90;99.90;;;;;;5049636;28;20127;-62
2023/04/01 01:10:02;;;;;;;17.00;7.93;;;9.90;99.90;;;;;;5050580;28;20045;-62
2023/04/01 01:12:52;;;;;;;11.82;6.43;;;9.90;99.90;;;;;;5048595;28;20040;-62
2023/04/01 01:15:26;;;;;;;12.40;7.00;;;9.90;99.90;;;;;;5049461;28;20119;-62
2023/04/01 01:18:07;;;;;;;9.93;6.03;;;9.80;99.90;;;;;;5050580;28;20041;-62
2023/04/01 01:20:35;;;;;;;12.02;6.47;;;9.90;99.90;;;;;;5049927;28;20052;-62
2023/04/01 01:23:33;;;;;;;11.90;6.50;;;9.90;99.90;;;;;;5050337;28;20048;-63
2023/04/01 01:26:14;;;;;;;12.57;6.82;;;9.90;99.90;;;;;;5047539;28;20045;-62
2023/04/01 01:28:45;;;;;;;11.10;6.72;;;9.90;99.90;;;;;;5049127;28;20053;-62
2023/04/01 01:31:17;;;;;;;10.20;6.60;;;9.80;99.90;;;;;;5050557;28;20098;-62
2023/04/01 01:34:01;;;;;;;11.45;6.82;;;9.80;99.90;;;;;;5049963;28;20178;-62
2023/04/01 01:36:34;;;;;;;13.10;7.95;;;9.80;99.90;;;;;;5049410;28;20037;-62
2023/04/01 01:39:04;;;;;;;15.00;7.15;;;9.80;99.90;;;;;;5049298;28;20116;-62
2023/04/01 01:41:32;;;;;;;12.43;6.75;;;9.80;99.90;;;;;;5049742;28;20041;-62
2023/04/01 01:44:02;;;;;;;10.50;6.35;;;9.80;99.90;;;;;;5048950;28;20503;-62
2023/04/01 01:46:29;;;;;;;;;;;9.80;99.90;;;;;;5050515;28;20052;-62
2023/04/01 01:48:56;;;;;;;12.82;6.90;;;9.90;99.90;;;;;;5048349;28;19916;-62
2023/04/01 01:51:22;;;;;;;12.38;6.25;;;9.90;99.90;;;;;;5050178;28;20048;-62
2023/04/01 01:53:48;;;;;;;11.13;5.93;;;9.80;99.90;;;;;;5049579;28;20041;-62
2023/04/01 01:56:17;;;;;;;11.85;7.30;;;9.90;99.90;;;;;;5050112;28;20037;-62
2023/04/01 01:58:47;;;;;;;11.95;6.80;;;9.90;99.90;;;;;;5051820;28;20068;-62
2023/04/01 02:01:18;;;;;;;14.50;6.45;;;9.80;99.90;;;;;;5053209;28;20049;-62
2023/04/01 02:03:44;;;;;;;13.13;6.85;;;9.90;99.90;;;;;;5052870;28;20047;-62
2023/04/01 02:06:13;;;;;;;14.60;7.57;;;9.80;99.90;;;;;;5036257;28;20176;-62
2023/04/01 02:08:47;;;;;;;17.73;7.18;;;9.80;99.90;;;;;;5052130;28;20128;-62
2023/04/01 02:11:15;;;;;;;17.70;7.90;;;9.80;99.90;;;;;;5053766;28;20134;-62
2023/04/01 02:14:06;;;;;;;13.18;7.45;;;9.80;99.90;;;;;;5053614;28;20373;-62
2023/04/01 02:16:43;;;;;;;15.48;6.95;;;9.80;99.90;;;;;;5051463;28;20085;-62
2023/04/01 02:19:12;;;;;;;16.52;8.07;;;9.90;99.90;;;;;;5052271;28;20049;-62
2023/04/01 02:21:39;;;;;;;14.38;7.50;;;9.80;99.90;;;;;;5051728;28;20041;-62
2023/04/01 02:24:09;;;;;;;21.80;9.10;;;9.90;99.90;;;;;;5053227;28;20052;-62
2023/04/01 02:26:36;;;;;;;20.92;8.77;;;9.80;99.90;;;;;;5053640;28;20476;-62
2023/04/01 02:29:04;;;;;;;17.17;8.35;;;9.80;99.90;;;;;;5051537;28;20048;-62
2023/04/01 02:31:31;;;;;;;14.25;7.95;;;9.80;99.90;;;;;;5051987;28;20055;-62
2023/04/01 02:33:58;;;;;;;21.27;9.23;;;9.80;99.90;;;;;;5053290;28;20045;-62
2023/04/01 02:36:24;;;;;;;16.67;8.50;;;9.90;99.90;;;;;;5052600;28;20044;-62
2023/04/01 02:38:52;;;;;;;15.00;7.78;;;9.90;99.90;;;;;;5053159;28;20052;-62
2023/04/01 02:41:17;;;;;;;19.40;9.00;;;9.90;99.90;;;;;;5053384;28;20086;-62
2023/04/01 02:43:43;;;;;;;15.93;8.75;;;9.90;99.90;;;;;;5051304;28;20363;-62
2023/04/01 02:46:09;;;;;;;14.93;8.02;;;9.90;99.90;;;;;;5051778;28;20044;-62
2023/04/01 02:48:35;;;;;;;21.42;9.00;;;9.90;99.90;;;;;;5053033;28;20048;-62
2023/04/01 02:51:01;;;;;;;17.40;8.48;;;9.90;99.90;;;;;;5052397;28;20382;-62
2023/04/01 02:53:27;;;;;;;14.90;7.22;;;9.90;99.90;;;;;;5052826;28;20041;-62
2023/04/01 02:55:52;;;;;;;16.65;7.63;;;9.90;99.90;;;;;;5053116;28;20036;-62
2023/04/01 02:58:18;;;;;;;13.55;7.05;;;9.90;99.90;;;;;;5050983;28;20525;-62
2023/04/01 03:00:44;;;;;;;14.80;6.90;;;9.90;99.90;;;;;;5051554;28;20489;-62
2023/04/01 03:03:10;;;;;;;14.63;6.80;;;9.90;99.90;;;;;;5052766;28;20047;-62
2023/04/01 03:05:36;;;;;;;9.60;5.43;;;9.90;99.90;;;;;;5050899;28;20041;-62
2023/04/01 03:08:03;;;;;;;8.68;4.65;;;9.90;99.90;;;;;;5052707;28;20080;-62
2023/04/01 03:10:28;;;;;;;10.30;4.80;;;9.90;99.90;;;;;;5050054;28;20049;-62
2023/04/01 03:12:54;;;;;;;11.55;5.07;;;9.90;99.90;;;;;;5050657;28;20045;-62
2023/04/01 03:15:20;;;;;;;7.47;3.75;;;9.90;99.90;;;;;;5052607;28;20032;-62
2023/04/01 03:17:46;;;;;;;9.30;3.38;;;9.90;99.90;;;;;;5050825;28;20049;-62
2023/04/01 03:20:12;;;;;;;5.40;3.20;;;9.90;99.90;;;;;;5052504;28;20033;-62
2023/04/01 03:22:39;;;;;;;7.50;3.50;;;9.80;99.90;;;;;;5052588;28;20048;-62
2023/04/01 03:25:07;;;;;;;6.88;3.30;;;9.90;99.90;;;;;;5051679;28;20433;-62
2023/04/01 03:27:35;;;;;;;4.25;2.58;;;9.90;99.90;;;;;;5051029;28;20116;-62
2023/04/01 03:30:01;;;;;;;7.43;3.30;;;9.80;99.90;;;;;;5050945;28;20116;-62
2023/04/01 03:32:28;;;;;;;6.05;2.60;;;9.80;99.90;;;;;;5050169;28;20056;-62
2023/04/01 03:34:54;;;;;;;4.88;2.42;;;9.80;99.90;;;;;;5052070;28;20064;-62
2023/04/01 03:37:20;;;;;;;7.72;3.50;;;9.80;99.90;;;;;;5050838;28;20037;-62
2023/04/01 03:39:46;;;;;;;8.70;2.90;;;9.80;99.90;;;;;;5051634;28;20397;-62
2023/04/01 03:42:12;;;;;;;5.05;2.80;;;9.70;99.90;;;;;;5034152;28;20488;-62
2023/04/01 03:44:38;;;;;;;7.57;3.10;;;9.70;99.90;;;;;;5052036;28;20053;-62
2023/04/01 03:47:03;;;;;;;5.13;2.63;;;9.70;99.90;;;;;;5050131;28;20095;-62
2023/04/01 03:49:29;;;;;;;5.20;2.90;;;9.70;99.90;;;;;;5050501;28;20067;-62
2023/04/01 03:51:55;;;;;;;5.90;2.70;;;9.70;99.90;;;;;;5050467;28;20045;-62
2023/04/01 03:54:21;;;;;;;4.50;2.42;;;9.70;99.90;;;;;;5033387;28;20037;-62
2023/04/01 03:56:47;;;;;;;6.10;2.97;;;9.70;99.90;;;;;;5084224;28;20114;-62
2023/04/01 03:59:13;;;;;;;6.15;3.30;;;9.70;99.90;;;;;;5051789;28;20377;-62
2023/04/01 04:01:39;;;;;;;6.45;3.05;;;9.70;99.90;;;;;;5051092;28;20420;-62
2023/04/01 04:04:05;;;;;;;5.85;2.80;;;9.70;99.90;;;;;;5051624;28;20390;-62
2023/04/01 04:06:32;;;;;;;4.68;2.65;;;9.60;99.90;;;;;;5050210;28;20049;-62
2023/04/01 04:08:58;;;;;;;8.13;3.53;;;9.70;99.90;;;;;;5051590;28;20037;-62
2023/04/01 04:11:24;;;;;;;7.47;3.15;;;9.70;99.90;;;;;;5050195;28;20474;-62
2023/04/01 04:13:50;;;;;;;8.82;3.70;;;9.60;99.90;;;;;;5049474;28;20049;-62
2023/04/01 04:16:17;;;;;;;6.72;3.13;;;9.70;99.90;;;;;;5051384;28;20037;-62
2023/04/01 04:18:42;;;;;;;8.73;3.70;;;9.70;99.90;;;;;;5049922;28;20045;-62
2023/04/01 04:21:15;;;;;;;10.88;4.65;;;9.60;99.90;;;;;;5050404;28;20048;-62
2023/04/01 04:23:41;;;;;;;12.32;4.80;;;9.60;99.90;;;;;;5051007;28;20493;-62
2023/04/01 04:26:10;;;;;;;10.40;4.25;;;9.70;99.90;;;;;;5049874;28;20572;-62
2023/04/01 04:28:36;;;;;;;12.98;4.40;;;9.70;99.90;;;;;;5049269;28;20083;-62
2023/04/01 04:31:02;;;;;;;12.85;4.38;;;9.60;99.90;;;;;;5049782;28;20072;-62
2023/04/01 04:33:28;;;;;;;10.55;3.65;;;9.70;99.90;;;;;;5049710;28;20141;-62
2023/04/01 04:35:58;;;;;;;11.55;4.32;;;9.60;99.90;;;;;;5049532;28;20128;-62
2023/04/01 04:38:25;;;;;;;10.02;3.42;;;9.70;99.90;;;;;;5051078;28;20052;-62
2023/04/01 04:40:51;;;;;;;8.40;3.38;;;9.60;99.90;;;;;;5048624;28;20048;-62
2023/04/01 04:43:17;;;;;;;8.38;2.80;;;9.60;99.90;;;;;;5050308;28;20102;-62
2023/04/01 04:45:43;;;;;;;6.55;2.63;;;9.60;99.90;;;;;;5050512;28;20029;-62
2023/04/01 04:48:18;;;;;;;7.45;2.90;;;9.60;99.90;;;;;;5049818;28;20037;-62
2023/04/01 04:50:44;;;;;;;6.88;3.00;;;9.60;99.90;;;;;;5048968;28;20480;-62
2023/04/01 04:53:14;;;;;;;6.93;2.60;;;9.60;99.90;;;;;;5049012;28;20052;-62
2023/04/01 04:55:48;;;;;;;7.97;2.70;;;9.60;99.90;;;;;;5048804;28;20041;-62
2023/04/01 04:58:14;;;;;;;7.78;2.75;;;9.60;99.90;;;;;;5048859;28;20072;-62
2023/04/01 05:00:40;;;;;;;8.60;3.53;;;9.60;99.90;;;;;;5049523;28;20036;-62
2023/04/01 05:03:07;;;;;;;6.78;3.25;;;9.60;99.90;;;;;;5048713;28;20052;-62
2023/04/01 05:05:34;;;;;;;6.78;3.33;;;9.60;99.90;;;;;;5049301;28;20126;-62
2023/04/01 05:08:00;;;;;;;10.60;4.35;;;9.60;99.90;;;;;;5049224;28;20049;-62
2023/04/01 05:10:26;;;;;;;9.10;3.92;;;9.60;99.90;;;;;;5049894;28;20094;-62
2023/04/01 05:12:51;;;;;;;8.55;3.65;;;9.60;99.90;;;;;;5048913;28;20465;-62
2023/04/01 05:15:17;;;;;;;9.57;4.00;;;9.60;99.90;;;;;;5049265;28;20076;-62
2023/04/01 05:17:43;;;;;;;10.98;4.68;;;9.60;99.90;;;;;;5049996;28;20112;-62
2023/04/01 05:20:09;;;;;;;13.25;5.53;;;9.60;99.90;;;;;;5048792;28;20040;-62
2023/04/01 05:22:35;;;;;;;10.15;5.05;;;9.60;99.90;;;;;;5049180;28;20045;-62
2023/04/01 05:25:01;;;;;;;20.08;7.18;;;9.60;99.90;;;;;;5047845;28;20063;-63
2023/04/01 05:27:26;;;;;;;16.83;7.05;;;9.60;99.90;;;;;;5048479;28;20064;-63
2023/04/01 05:29:52;;;;;;;14.23;7.13;;;9.60;99.90;;;;;;5048223;28;20147;-63
2023/04/01 05:32:18;;;;;;;20.23;8.18;;;9.60;99.90;;;;;;5047269;28;20504;-63
2023/04/01 05:34:44;;;;;;;18.52;8.25;;;9.60;99.90;;;;;;5051329;28;20049;-62
2023/04/01 05:37:10;;;;;;;19.42;9.02;;;9.70;99.90;;;;;;5053169;28;20041;-63
2023/04/01 05:39:37;;;;;;;18.90;9.30;;;9.60;99.90;;;;;;5052541;28;20057;-62
2023/04/01 05:42:05;;;;;;;24.58;10.38;;;9.70;99.90;;;;;;5035079;28;20045;-62
2023/04/01 05:44:31;;;;;;;21.73;9.40;;;9.70;99.90;;;;;;5051941;28;20409;-62
2023/04/01 05:46:57;;;;;;;25.77;11.05;;;9.70;99.90;;;;;;5052644;28;20037;-63
2023/04/01 05:49:22;;;;;;;25.70;11.05;;;9.70;99.90;;;;;;5053035;28;20545;-63
2023/04/01 05:51:48;;;;;;;22.83;9.98;;;9.70;99.90;;;;;;5052228;28;20383;-62
2023/04/01 05:54:14;;;;;;;19.92;10.43;;;9.70;99.90;;;;;;5052873;28;20478;-62
2023/04/01 05:56:39;;;;;;;21.52;10.75;;;9.80;99.90;;;;;;5052670;28;20044;-63
2023/04/01 05:59:05;;;;;;;26.30;11.38;;;9.80;99.90;;;;;;5052188;28;20037;-63
2023/04/01 06:01:31;;;;;;;20.85;10.48;;;9.80;99.90;;;;;;5052799;28;20044;-62
2023/04/01 06:03:57;;;;;;;20.77;10.07;;;9.80;99.90;;;;;;5051609;28;20486;-63
2023/04/01 06:06:25;;;;;;;24.63;10.95;;;9.90;99.90;;;;;;5052184;28;20044;-62
2023/04/01 06:08:52;;;;;;;22.02;10.57;;;9.90;99.90;;;;;;5051439;28;20040;-62
2023/04/01 06:11:21;;;;;;;27.70;12.23;;;9.90;99.90;;;;;;5051128;28;20053;-63
2023/04/01 06:14:17;;;;;;;20.60;9.43;;;9.90;99.90;;;;;;5052012;28;20037;-63
2023/04/01 06:16:52;;;;;;;19.73;9.30;;;9.90;99.90;;;;;;5052433;28;20048;-63
2023/04/01 06:19:27;;;;;;;20.60;10.13;;;9.90;99.90;;;;;;5051061;28;20551;-63
2023/04/01 06:22:11;;;;;;;17.13;8.90;;;10.00;99.90;;;;;;5050343;28;20102;-63
2023/04/01 06:24:43;;;;;;;19.73;9.48;;;10.00;99.90;;;;;;5052125;28;20053;-63
2023/04/01 06:27:17;;;;;;;17.70;8.38;;;10.00;99.90;;;;;;5051698;28;20045;-63
2023/04/01 06:29:52;;;;;;;21.02;9.50;;;10.10;99.90;;;;;;5050892;28;20037;-63
2023/04/01 06:32:18;;;;;;;20.80;9.00;;;10.10;99.90;;;;;;5052235;28;20055;-63
2023/04/01 06:34:52;;;;;;;18.77;9.00;;;10.10;99.90;;;;;;5051605;28;20029;-63
2023/04/01 06:37:45;;;;;;;17.70;8.68;;;10.20;99.90;;;;;;5052011;28;20039;-63
2023/04/01 06:40:56;;;;;;;13.93;7.35;;;10.20;99.90;;;;;;5051941;28;20489;-63
2023/04/01 06:43:44;;;;;;;15.23;7.68;;;10.20;99.90;;;;;;5049263;28;20068;-63
2023/04/01 06:46:25;;;;;;;14.68;7.03;;;10.20;99.90;;;;;;5083620;28;20045;-63
2023/04/01 06:49:29;;;;;;;13.38;7.30;;;10.20;99.90;;;;;;5050216;28;20114;-63
2023/04/01 06:52:00;;;;;;;16.60;7.68;;;10.20;99.90;;;;;;5009502;28;20490;-63
2023/04/01 06:54:31;;;;;;;12.32;6.97;;;10.20;99.90;;;;;;5009474;28;20042;-63
2023/04/01 06:57:05;;;;;;;14.98;6.97;;;10.20;99.90;;;;;;5008970;28;20136;-62
2023/04/01 06:59:34;;;;;;;14.88;6.70;;;10.20;99.90;;;;;;5009444;28;20498;-62
2023/04/01 07:02:09;;;;;;;14.65;7.50;;;10.30;99.90;;;;;;4992442;28;20050;-62
2023/04/01 07:04:44;;;;;;;17.52;8.02;;;10.30;99.90;;;;;;5009445;28;20052;-62
2023/04/01 07:07:31;;;;;;;15.48;7.38;;;10.30;99.90;;;;;;5009314;28;20061;-62
2023/04/01 07:10:01;;;;;;;13.90;7.00;;;10.30;99.90;;;;;;4992611;28;20112;-62
2023/04/01 07:12:33;;;;;;;15.40;6.80;;;10.30;99.90;;;;;;5025621;28;20053;-62
2023/04/01 07:15:13;;;;;;;13.05;6.55;;;10.30;99.90;;;;;;5009444;28;20376;-62
2023/04/01 07:17:41;;;;;;;17.80;7.53;;;10.30;99.90;;;;;;5025065;28;20421;-62
2023/04/01 07:20:35;;;;;;;16.25;7.03;;;10.30;99.90;;;;;;5025517;28;20045;-62
2023/04/01 07:23:10;;;;;;;9.50;5.50;;;10.30;99.90;;;;;;5007387;28;20406;-62
2023/04/01 07:25:47;;;;;;;8.05;4.10;;;10.30;99.90;;;;;;5046754;28;20053;-62
2023/04/01 07:28:16;;;;;;;10.82;4.88;;;10.20;99.90;;;;;;5050978;28;20052;-62
2023/04/01 07:30:52;;;;;;;10.63;5.28;;;10.20;99.90;;;;;;5049297;28;20114;-62
2023/04/01 07:33:28;;;;;;;13.85;6.32;;;10.20;99.90;;;;;;5049751;28;20047;-62
2023/04/01 07:35:54;;;;;;;7.50;3.83;;;10.20;99.90;;;;;;5050903;28;20041;-62
2023/04/01 07:38:29;;;;;;;4.82;2.85;;;10.20;99.90;;;;;;5050332;28;20047;-63
2023/04/01 07:41:16;;;;;;;5.00;2.30;;;10.30;99.90;;;;;;5050774;28;20110;-62
2023/04/01 07:44:08;;;;;;;4.97;2.40;;;10.20;99.90;;;;;;5049155;28;20043;-62
2023/04/01 07:46:36;;;;;;;4.63;2.88;;;10.20;99.90;;;;;;5033228;28;20098;-62
2023/04/01 07:49:35;;;;;;;5.90;3.28;;;10.20;99.90;;;;;;5050637;28;20413;-63
2023/04/01 07:52:22;;;;;;;6.38;3.33;;;10.20;99.90;;;;;;5043641;28;20065;-62
2023/04/01 07:55:16;;;;;;;8.30;4.25;;;10.30;99.90;;;;;;5050582;28;20052;-63
2023/04/01 07:57:57;;;;;;;6.95;3.80;;;10.20;99.90;;;;;;5047924;28;20386;-63
2023/04/01 08:00:29;;;;;;;11.32;5.75;;;10.30;99.90;;;;;;5049185;28;20044;-63
2023/04/01 08:03:01;;;;;;;11.27;6.25;;;10.30;99.90;;;;;;5032814;28;20375;-62
2023/04/01 08:05:46;;;;;;;12.38;7.55;;;10.30;99.90;;;;;;5049791;28;20098;-62
2023/04/01 08:08:31;;;;;;;13.77;8.30;;;10.40;99.90;;;;;;5049385;28;20438;-62
2023/04/01 08:11:04;;;;;;;14.98;8.77;;;10.50;99.90;;;;;;5050409;28;20095;-62
2023/04/01 08:13:49;;;;;;;15.48;8.75;;;10.50;99.90;;;;;;5049690;28;20033;-63
2023/04/01 08:16:52;;;;;;;13.85;8.77;;;10.50;99.90;;;;;;5048853;28;20052;-63
2023/04/01 08:19:46;;;;;;;15.93;9.68;;;10.60;99.90;;;;;;5048375;28;20072;-62
2023/04/01 08:22:25;;;;;;;17.55;10.30;;;10.60;99.90;;;;;;5048854;28;20512;-63
2023/04/01 08:24:54;;;;;;;14.85;9.38;;;10.60;99.90;;;;;;5048739;28;20111;-62
2023/04/01 08:27:39;;;;;;;17.73;10.05;;;10.60;99.90;;;;;;5048123;28;20505;-63
2023/04/01 08:30:19;;;;;;;17.88;9.48;;;10.60;99.90;;;;;;5048654;28;20040;-63
2023/04/01 08:33:23;;;;;;;15.30;9.18;;;10.60;99.90;;;;;;5048012;28;20512;-62
2023/04/01 08:35:59;;;;;;;14.98;8.98;;;10.60;99.90;;;;;;5007719;28;20569;-63
2023/04/01 08:38:42;;;;;;;17.58;10.82;;;10.60;99.90;;;;;;4991509;28;20054;-63
2023/04/01 08:41:52;;;;;;;15.48;10.88;;;10.60;99.90;;;;;;4990693;28;20049;-63
2023/04/01 08:44:39;;;;;;;15.77;10.15;;;10.60;99.90;;;;;;4982785;28;20216;-63
2023/04/01 08:47:05;;;;;;;19.70;11.05;;;10.60;99.90;;;;;;5023750;28;20046;-63
2023/04/01 08:49:52;;;;;;;16.73;10.73;;;10.60;99.90;;;;;;5023925;28;20057;-63
2023/04/01 08:52:26;;;;;;;16.83;10.63;;;10.60;99.90;;;;;;5007482;28;20046;-63
2023/04/01 08:55:22;;;;;;;18.13;11.43;;;10.60;99.90;;;;;;5023411;28;20042;-63
2023/04/01 08:58:07;;;;;;;18.23;11.05;;;10.70;99.90;;;;;;5007432;28;20762;-63
2023/04/01 09:00:57;;;;;;;19.33;12.07;;;10.70;99.90;;;;;;5006957;28;20442;-63
2023/04/01 09:03:50;;;;;;;19.95;12.00;;;10.60;99.90;;;;;;5024045;28;20181;-63
2023/04/01 09:06:26;;;;;;;19.35;12.07;;;10.60;99.90;;;;;;5007290;28;20095;-63
2023/04/01 09:08:52;;;;;;;21.77;13.57;;;10.70;99.90;;;;;;5026601;28;20042;-62
2023/04/01 09:11:46;;;;;;;23.13;13.95;;;10.60;99.90;;;;;;5049409;28;20049;-62
2023/04/01 09:14:47;;;;;;;20.55;12.68;;;10.70;99.90;;;;;;5048386;28;20103;-62
2023/04/01 09:17:33;;;;;;;19.13;12.82;;;10.70;99.90;;;;;;5007272;28;20037;-62
2023/04/01 09:20:07;;;;;;;27.30;13.18;;;10.70;99.90;;;;;;4996792;28;20041;-62
2023/04/01 09:22:36;;;;;;;26.42;14.07;;;10.60;99.90;;;;;;5006616;28;20490;-62
2023/04/01 09:25:27;;;;;;;24.73;14.70;;;10.60;99.90;;;;;;5006983;28;20064;-62
2023/04/01 09:27:58;;;;;;;26.67;15.13;;;10.60;99.90;;;;;;4948765;29;20058;-63
2023/04/01 09:30:46;;;;;;;23.88;14.75;;;10.60;99.90;;;;;;4932371;29;20048;-62
2023/04/01 09:33:30;;;;;;;24.05;14.20;;;10.60;99.90;;;;;;4933020;29;20071;-62
2023/04/01 09:35:56;;;;;;;26.27;13.45;;;10.60;99.90;;;;;;4932368;29;20183;-63
2023/04/01 09:38:49;;;;;;;21.55;13.57;;;10.60;99.90;;;;;;4948720;29;20055;-62
2023/04/01 09:41:15;;;;;;;26.42;13.43;;;10.60;99.90;;;;;;4948846;29;20039;-62
2023/04/01 09:44:03;;;;;;;23.67;12.70;;;10.60;99.90;;;;;;4932423;29;20170;-63
2023/04/01 09:47:06;;;;;;;23.40;13.85;;;10.60;99.90;;;;;;4948933;29;20526;-63
2023/04/01 09:50:06;;;;;;;21.73;13.77;;;10.60;99.90;;;;;;4948653;29;20050;-63
2023/04/01 09:52:43;;;;;;;;;;;10.70;99.90;;;;;;5007420;28;20046;-62
2023/04/01 09:55:11;;;;;;;25.80;13.85;;;10.80;99.90;;;;;;5007013;28;20008;-63
2023/04/01 09:58:04;;;;;;;24.10;14.30;;;10.80;99.90;;;;;;4990142;28;20057;-62
2023/04/01 10:00:36;;;;;;;24.55;14.80;;;10.90;99.90;;;;;;5006884;28;20037;-63
2023/04/01 10:03:52;;;;;;;27.73;13.48;;;11.00;99.90;;;;;;5006832;28;20560;-62
2023/04/01 10:06:42;;;;;;;21.10;12.77;;;11.10;99.90;;;;;;4987170;28;20077;-63
2023/04/01 10:09:20;;;;;;;;;;;11.10;99.90;;;;;;4987623;28;20058;-63
2023/04/01 10:12:01;;;;;;;21.23;12.48;;;11.20;99.90;;;;;;4970299;28;20032;-63
2023/04/01 10:14:38;;;;;;;24.85;13.48;;;11.20;99.90;;;;;;4987229;28;20061;-63
2023/04/01 10:17:06;;;;;;;23.13;13.02;;;11.30;99.90;;;;;;4987055;28;20034;-63
2023/04/01 10:19:56;;;;;;;21.95;11.85;;;11.30;99.90;;;;;;4987847;28;20049;-63
2023/04/01 10:22:37;;;;;;;;;;;11.30;99.90;;;;;;4990995;28;20491;-63
2023/04/01 10:25:16;;;;;;;18.75;11.45;;;11.40;99.90;;;;;;4973650;28;19928;-63
2023/04/01 10:27:56;;;;;;;18.60;11.50;;;11.50;99.90;;;;;;4990626;28;20072;-64
2023/04/01 10:30:28;;;;;;;17.58;10.98;;;11.60;99.90;;;;;;4974267;28;20061;-63
2023/04/01 10:33:31;;;;;;;16.35;11.43;;;11.70;99.90;;;;;;4989755;28;20407;-64
2023/04/01 10:36:14;;;;;;;18.52;11.77;;;11.80;99.90;;;;;;4990543;28;20042;-63
2023/04/01 10:38:54;;;;;;;16.13;10.25;;;11.90;99.90;;;;;;4989940;28;20061;-64
2023/04/01 10:41:29;;;;;;;17.13;11.05;;;11.90;99.90;;;;;;5046167;28;20085;-64
2023/04/01 10:44:17;;;;;;;9.18;7.07;;;11.90;99.90;;;;;;5050954;28;20473;-64
2023/04/01 10:47:12;;;;;;;9.30;5.97;;;11.80;99.90;;;;;;5051483;28;20037;-63
2023/04/01 10:49:56;;;;;;;10.48;6.45;;;11.70;99.90;;;;;;5050827;28;20103;-63
2023/04/01 10:53:05;;;;;;;9.23;6.50;;;11.50;99.90;;;;;;5050545;28;20159;-63
2023/04/01 10:55:55;;;;;;;8.73;6.30;;;11.40;99.90;;;;;;5051881;28;20504;-64
2023/04/01 10:58:40;;;;;;;9.63;6.43;;;11.40;99.90;;;;;;5050409;28;20076;-64
2023/04/01 11:01:44;;;;;;;8.05;5.78;;;11.40;99.90;;;;;;5049731;28;20048;-64
2023/04/01 11:04:28;;;;;;;6.88;5.07;;;11.40;99.90;;;;;;5033858;28;20110;-64
2023/04/01 11:07:43;;;;;;;8.32;5.75;;;11.20;99.90;;;;;;5050982;28;20047;-64
2023/04/01 11:10:40;;;;;;;10.43;5.55;;;11.20;99.90;;;;;;5035183;28;20391;-64
2023/04/01 11:13:36;;;;;;;7.40;5.22;;;11.20;99.90;;;;;;5050139;28;20049;-64
2023/04/01 11:16:17;;;;;;;6.65;4.78;;;11.20;99.90;;;;;;5050082;28;20099;-64
2023/04/01 11:19:04;;;;;;;6.65;5.05;;;11.10;99.90;;;;;;5051311;28;20041;-65
2023/04/01 11:21:42;;;;;;;7.38;5.53;;;11.10;99.90;;;;;;5049359;28;20041;-65
2023/04/01 11:24:29;;;;;;;8.32;5.82;;;11.10;99.90;;;;;;5049660;28;20056;-64
2023/04/01 11:27:37;;;;;;;8.32;5.90;;;11.10;99.90;;;;;;5051302;28;20083;-64
2023/04/01 11:30:21;;;;;;;8.40;6.30;;;11.10;99.90;;;;;;5050835;28;20072;-65
2023/04/01 11:32:54;;;;;;;8.55;6.20;;;11.10;99.90;;;;;;5049275;28;20048;-64
2023/04/01 11:35:58;;;;;;;8.25;6.18;;;11.10;99.90;;;;;;5049348;28;20053;-65
2023/04/01 11:38:59;;;;;;;7.30;6.05;;;11.00;99.90;;;;;;5027282;28;20112;-65
2023/04/01 11:41:43;;;;;;;8.00;6.15;;;11.00;99.90;;;;;;5033950;28;20061;-65
2023/04/01 11:44:27;;;;;;;8.32;6.13;;;11.00;99.90;;;;;;5049558;28;20103;-65
2023/04/01 11:47:37;;;;;;;8.75;6.50;;;11.00;99.90;;;;;;5049518;28;20057;-64
2023/04/01 11:50:23;;;;;;;8.48;6.43;;;11.00;99.90;;;;;;5048961;28;20094;-64
2023/04/01 11:53:22;;;;;;;9.75;6.20;;;11.00;99.90;;;;;;5050395;28;20041;-64
2023/04/01 11:56:06;;;;;;;7.90;5.40;;;11.00;99.90;;;;;;5050191;28;20114;-64
2023/04/01 11:58:43;;;;;;;6.55;5.53;;;11.00;99.90;;;;;;5049201;28;20047;-64
2023/04/01 12:01:24;;;;;;;8.95;6.03;;;10.90;99.90;;;;;;5049377;28;20474;-65
2023/04/01 12:04:18;;;;;;;8.73;5.70;;;10.90;99.90;;;;;;5048765;28;20131;-65
2023/04/01 12:06:47;;;;;;;6.10;4.93;;;10.90;99.90;;;;;;5050361;28;20122;-65
2023/04/01 12:09:28;;;;;;;6.43;5.10;;;10.90;99.90;;;;;;5049055;28;20512;-65
2023/04/01 12:12:20;;;;;;;6.30;5.10;;;10.90;99.90;;;;;;5048632;28;20138;-65
2023/04/01 12:15:15;;;;;;;6.53;5.18;;;10.90;99.90;;;;;;5049173;28;20519;-65
2023/04/01 12:18:10;;;;;;;6.15;5.00;;;10.90;99.90;;;;;;5049532;28;20549;-65
2023/04/01 12:20:45;;;;;;;5.60;4.85;;;11.00;99.90;;;;;;5050379;28;20033;-66
2023/04/01 12:23:17;;;;;;;5.43;4.45;;;11.00;99.90;;;;;;5050003;28;20040;-66
2023/04/01 12:26:11;;;;;;;5.95;4.45;;;11.10;99.90;;;;;;5049777;28;20037;-65
2023/04/01 12:28:48;;;;;;;4.82;3.85;;;11.10;99.90;;;;;;5050012;28;20124;-65
2023/04/01 12:31:23;;;;;;;6.03;4.47;;;11.10;99.90;;;;;;5048049;28;20129;-65
2023/04/01 12:34:06;;;;;;;4.95;3.97;;;11.10;99.90;;;;;;5048515;28;20048;-65
2023/04/01 12:37:19;;;;;;;6.90;4.50;;;11.00;99.90;;;;;;5049904;28;20033;-65
2023/04/01 12:40:20;;;;;;;5.97;4.53;;;11.00;99.90;;;;;;5039251;28;20084;-65
2023/04/01 12:43:15;;;;;;;8.20;4.80;;;11.00;99.90;;;;;;5049655;28;20048;-65
2023/04/01 12:46:14;;;;;;;7.25;4.45;;;11.00;99.90;;;;;;5048139;28;20131;-65
2023/04/01 12:49:10;;;;;;;5.90;4.55;;;11.00;99.90;;;;;;5049673;28;20386;-66
2023/04/01 12:51:58;;;;;;;7.00;4.65;;;11.00;99.90;;;;;;5048939;28;20045;-66
2023/04/01 12:54:24;;;;;;;7.03;4.30;;;11.00;99.90;;;;;;5049699;28;20052;-66
2023/04/01 12:57:27;;;;;;;5.00;4.20;;;11.00;99.90;;;;;;5049545;28;20049;-65
2023/04/01 13:00:45;;;;;;;6.50;4.40;;;10.90;99.90;;;;;;5047928;28;20037;-67
2023/04/01 13:03:32;;;;;;;6.43;4.47;;;10.90;99.90;;;;;;5033351;28;20049;-66
2023/04/01 13:06:16;;;;;;;5.50;4.57;;;10.90;99.90;;;;;;5048767;28;20074;-65
2023/04/01 13:08:48;;;;;;;4.93;4.07;;;10.90;99.90;;;;;;5049533;28;20047;-65
2023/04/01 13:11:21;;;;;;;6.45;4.35;;;10.90;99.90;;;;;;5047938;28;20045;-66
2023/04/01 13:14:20;;;;;;;5.22;4.28;;;10.90;99.90;;;;;;5047533;28;20045;-66
2023/04/01 13:16:49;;;;;;;7.03;4.28;;;10.90;99.90;;;;;;5048103;28;20052;-66
2023/04/01 13:19:25;;;;;;;4.73;4.07;;;10.90;99.90;;;;;;5048091;28;20500;-66
2023/04/01 13:22:19;;;;;;;5.65;4.15;;;10.90;99.90;;;;;;5047722;28;20275;-66
2023/04/01 13:24:48;;;;;;;4.60;4.15;;;10.80;99.90;;;;;;5047868;28;20135;-66
2023/04/01 13:27:21;;;;;;;5.32;4.15;;;10.80;99.90;;;;;;5047640;28;20504;-66
2023/04/01 13:29:46;;;;;;;6.57;4.13;;;10.80;99.90;;;;;;5049363;28;20040;-66
2023/04/01 13:32:37;;;;;;;6.13;4.20;;;10.80;99.90;;;;;;5047887;28;20052;-66